Terminal Aerodrome Forecast
Issued by NWS

Home | Current Version | Previous Version | Text Only | Print | Product List | Glossary On
Versions: 1 2 3 4 5 6 7 8 9 10 11 12 13 14 15 16 17 18 19 20 21 22 23 24 25 26 27 28 29 30 31 32 33 34 35 36 37 38 39 40 41 42 43 44 45 46 47 48 49 50
000
FTUS43 KMKX 221744
TAFENW
TAF
KENW 221744Z 2218/2318 22015G23KT P6SM SCT060
     FM230000 21011KT P6SM SCT250
     FM230700 25010KT P6SM FEW250
     FM230900 28009KT P6SM SCT250
     FM231100 32009KT P6SM SCT090
     FM231300 35010KT P6SM BKN008
     FM231500 02011G17KT P6SM BKN008
     FM231700 02012G18KT P6SM BKN015=

USA.gov is the U.S. government's official web portal to all federal, state and local government web resources and services.